sensor_id;sensor_type;location;lat;lon;timestamp;P1;durP1;ratioP1;P2;durP2;ratioP2
80503;SDS011;69825;51.190;6.808;2023-07-29T00:00:25;2.60;;;1.20;;
80503;SDS011;69825;51.190;6.808;2023-07-29T00:02:52;2.58;;;0.93;;
80503;SDS011;69825;51.190;6.808;2023-07-29T00:05:18;1.35;;;1.25;;
80503;SDS011;69825;51.190;6.808;2023-07-29T00:07:43;1.40;;;1.08;;
80503;SDS011;69825;51.190;6.808;2023-07-29T00:10:09;1.85;;;1.15;;
80503;SDS011;69825;51.190;6.808;2023-07-29T00:12:34;1.00;;;1.00;;
80503;SDS011;69825;51.190;6.808;2023-07-29T00:14:59;1.42;;;1.17;;
80503;SDS011;69825;51.190;6.808;2023-07-29T00:17:25;1.55;;;1.20;;
80503;SDS011;69825;51.190;6.808;2023-07-29T00:19:51;1.30;;;1.20;;
80503;SDS011;69825;51.190;6.808;2023-07-29T00:22:16;1.00;;;1.00;;
80503;SDS011;69825;51.190;6.808;2023-07-29T00:24:41;2.22;;;1.10;;
80503;SDS011;69825;51.190;6.808;2023-07-29T00:27:07;1.20;;;1.10;;
80503;SDS011;69825;51.190;6.808;2023-07-29T00:29:32;1.10;;;1.10;;
80503;SDS011;69825;51.190;6.808;2023-07-29T00:31:57;1.27;;;1.10;;
80503;SDS011;69825;51.190;6.808;2023-07-29T00:34:23;1.40;;;1.15;;
80503;SDS011;69825;51.190;6.808;2023-07-29T00:36:48;1.30;;;1.20;;
80503;SDS011;69825;51.190;6.808;2023-07-29T00:39:14;1.77;;;1.30;;
80503;SDS011;69825;51.190;6.808;2023-07-29T00:41:39;1.40;;;1.30;;
80503;SDS011;69825;51.190;6.808;2023-07-29T00:44:05;1.40;;;1.20;;
80503;SDS011;69825;51.190;6.808;2023-07-29T00:46:30;0.90;;;0.90;;
80503;SDS011;69825;51.190;6.808;2023-07-29T00:48:59;1.33;;;1.00;;
80503;SDS011;69825;51.190;6.808;2023-07-29T00:51:25;1.10;;;1.10;;
80503;SDS011;69825;51.190;6.808;2023-07-29T00:53:50;2.65;;;1.20;;
80503;SDS011;69825;51.190;6.808;2023-07-29T00:56:15;1.20;;;1.10;;
80503;SDS011;69825;51.190;6.808;2023-07-29T00:58:41;2.20;;;1.25;;
80503;SDS011;69825;51.190;6.808;2023-07-29T01:01:07;0.90;;;0.90;;
80503;SDS011;69825;51.190;6.808;2023-07-29T01:03:33;2.15;;;1.10;;
80503;SDS011;69825;51.190;6.808;2023-07-29T01:06:11;1.27;;;1.17;;
80503;SDS011;69825;51.190;6.808;2023-07-29T01:08:45;1.80;;;1.25;;
80503;SDS011;69825;51.190;6.808;2023-07-29T01:11:20;1.35;;;1.25;;
80503;SDS011;69825;51.190;6.808;2023-07-29T01:13:58;1.55;;;1.30;;
80503;SDS011;69825;51.190;6.808;2023-07-29T01:16:32;1.58;;;1.08;;
80503;SDS011;69825;51.190;6.808;2023-07-29T01:19:04;2.80;;;1.33;;
80503;SDS011;69825;51.190;6.808;2023-07-29T01:21:35;1.30;;;1.20;;
80503;SDS011;69825;51.190;6.808;2023-07-29T01:24:01;1.60;;;1.33;;
80503;SDS011;69825;51.190;6.808;2023-07-29T01:26:27;3.65;;;1.35;;
80503;SDS011;69825;51.190;6.808;2023-07-29T01:28:54;2.88;;;1.30;;
80503;SDS011;69825;51.190;6.808;2023-07-29T01:34:01;3.00;;;1.30;;
80503;SDS011;69825;51.190;6.808;2023-07-29T01:36:34;1.52;;;1.25;;
80503;SDS011;69825;51.190;6.808;2023-07-29T01:39:04;3.10;;;1.50;;
80503;SDS011;69825;51.190;6.808;2023-07-29T01:41:30;2.10;;;1.10;;
80503;SDS011;69825;51.190;6.808;2023-07-29T01:43:56;1.67;;;1.50;;
80503;SDS011;69825;51.190;6.808;2023-07-29T01:46:22;1.67;;;1.27;;
80503;SDS011;69825;51.190;6.808;2023-07-29T01:48:47;1.50;;;1.40;;
80503;SDS011;69825;51.190;6.808;2023-07-29T01:51:12;3.20;;;1.27;;
80503;SDS011;69825;51.190;6.808;2023-07-29T01:53:38;1.48;;;1.38;;
80503;SDS011;69825;51.190;6.808;2023-07-29T01:56:03;2.33;;;1.65;;
80503;SDS011;69825;51.190;6.808;2023-07-29T01:58:29;1.98;;;1.20;;
80503;SDS011;69825;51.190;6.808;2023-07-29T02:00:54;1.52;;;1.42;;
80503;SDS011;69825;51.190;6.808;2023-07-29T02:03:19;2.55;;;1.55;;
80503;SDS011;69825;51.190;6.808;2023-07-29T02:05:45;1.15;;;1.10;;
80503;SDS011;69825;51.190;6.808;2023-07-29T02:08:10;2.28;;;1.35;;
80503;SDS011;69825;51.190;6.808;2023-07-29T02:10:36;1.20;;;1.20;;
80503;SDS011;69825;51.190;6.808;2023-07-29T02:13:02;3.00;;;1.70;;
80503;SDS011;69825;51.190;6.808;2023-07-29T02:15:28;4.55;;;1.88;;
80503;SDS011;69825;51.190;6.808;2023-07-29T02:17:54;1.92;;;1.23;;
80503;SDS011;69825;51.190;6.808;2023-07-29T02:20:19;2.22;;;1.40;;
80503;SDS011;69825;51.190;6.808;2023-07-29T02:22:45;1.60;;;1.50;;
80503;SDS011;69825;51.190;6.808;2023-07-29T02:25:10;2.05;;;1.58;;
80503;SDS011;69825;51.190;6.808;2023-07-29T02:27:36;2.08;;;1.55;;
80503;SDS011;69825;51.190;6.808;2023-07-29T02:30:01;2.20;;;1.40;;
80503;SDS011;69825;51.190;6.808;2023-07-29T02:32:27;4.65;;;1.63;;
80503;SDS011;69825;51.190;6.808;2023-07-29T02:34:53;1.60;;;1.50;;
80503;SDS011;69825;51.190;6.808;2023-07-29T02:37:18;3.35;;;1.30;;
80503;SDS011;69825;51.190;6.808;2023-07-29T02:39:44;1.70;;;1.60;;
80503;SDS011;69825;51.190;6.808;2023-07-29T02:42:09;3.42;;;1.75;;
80503;SDS011;69825;51.190;6.808;2023-07-29T02:44:35;1.88;;;1.48;;
80503;SDS011;69825;51.190;6.808;2023-07-29T02:47:00;1.60;;;1.50;;
80503;SDS011;69825;51.190;6.808;2023-07-29T02:49:25;2.10;;;1.40;;
80503;SDS011;69825;51.190;6.808;2023-07-29T02:51:51;1.50;;;1.40;;
80503;SDS011;69825;51.190;6.808;2023-07-29T02:54:16;2.47;;;1.50;;
80503;SDS011;69825;51.190;6.808;2023-07-29T02:56:41;2.67;;;1.60;;
80503;SDS011;69825;51.190;6.808;2023-07-29T02:59:07;2.08;;;1.40;;
80503;SDS011;69825;51.190;6.808;2023-07-29T03:01:32;1.92;;;1.58;;
80503;SDS011;69825;51.190;6.808;2023-07-29T03:03:57;1.90;;;1.45;;
80503;SDS011;69825;51.190;6.808;2023-07-29T03:06:23;2.55;;;1.50;;
80503;SDS011;69825;51.190;6.808;2023-07-29T03:08:48;1.70;;;1.45;;
80503;SDS011;69825;51.190;6.808;2023-07-29T03:11:15;2.38;;;1.20;;
80503;SDS011;69825;51.190;6.808;2023-07-29T03:13:41;3.53;;;1.70;;
80503;SDS011;69825;51.190;6.808;2023-07-29T03:16:10;1.40;;;1.30;;
80503;SDS011;69825;51.190;6.808;2023-07-29T03:18:40;1.90;;;1.50;;
80503;SDS011;69825;51.190;6.808;2023-07-29T03:21:06;2.60;;;1.70;;
80503;SDS011;69825;51.190;6.808;2023-07-29T03:23:33;1.52;;;1.40;;
80503;SDS011;69825;51.190;6.808;2023-07-29T03:25:59;1.67;;;1.58;;
80503;SDS011;69825;51.190;6.808;2023-07-29T03:28:26;1.92;;;1.48;;
80503;SDS011;69825;51.190;6.808;2023-07-29T03:30:55;1.95;;;1.40;;
80503;SDS011;69825;51.190;6.808;2023-07-29T03:33:21;1.45;;;1.25;;
80503;SDS011;69825;51.190;6.808;2023-07-29T03:35:47;3.10;;;1.50;;
80503;SDS011;69825;51.190;6.808;2023-07-29T03:38:13;1.40;;;1.27;;
80503;SDS011;69825;51.190;6.808;2023-07-29T03:40:38;1.35;;;1.25;;
80503;SDS011;69825;51.190;6.808;2023-07-29T03:43:04;1.30;;;1.20;;
80503;SDS011;69825;51.190;6.808;2023-07-29T03:45:30;2.28;;;1.50;;
80503;SDS011;69825;51.190;6.808;2023-07-29T03:47:56;3.30;;;1.40;;
80503;SDS011;69825;51.190;6.808;2023-07-29T03:50:21;2.45;;;1.17;;
80503;SDS011;69825;51.190;6.808;2023-07-29T03:52:46;2.13;;;1.23;;
80503;SDS011;69825;51.190;6.808;2023-07-29T03:55:12;2.55;;;1.20;;
80503;SDS011;69825;51.190;6.808;2023-07-29T03:57:37;2.45;;;1.30;;
80503;SDS011;69825;51.190;6.808;2023-07-29T04:00:03;1.73;;;1.20;;
80503;SDS011;69825;51.190;6.808;2023-07-29T04:02:29;2.03;;;1.30;;
80503;SDS011;69825;51.190;6.808;2023-07-29T04:04:54;2.22;;;1.27;;
80503;SDS011;69825;51.190;6.808;2023-07-29T04:07:19;1.67;;;1.30;;
80503;SDS011;69825;51.190;6.808;2023-07-29T04:09:45;1.83;;;1.30;;
80503;SDS011;69825;51.190;6.808;2023-07-29T04:12:10;2.75;;;1.40;;
80503;SDS011;69825;51.190;6.808;2023-07-29T04:14:36;4.57;;;1.33;;
80503;SDS011;69825;51.190;6.808;2023-07-29T04:17:01;2.42;;;1.40;;
80503;SDS011;69825;51.190;6.808;2023-07-29T04:19:26;3.53;;;1.50;;
80503;SDS011;69825;51.190;6.808;2023-07-29T04:21:52;4.68;;;1.30;;
80503;SDS011;69825;51.190;6.808;2023-07-29T04:24:17;3.30;;;1.30;;
80503;SDS011;69825;51.190;6.808;2023-07-29T04:26:45;4.10;;;1.40;;
80503;SDS011;69825;51.190;6.808;2023-07-29T04:29:10;1.30;;;1.20;;
80503;SDS011;69825;51.190;6.808;2023-07-29T04:31:35;3.28;;;1.25;;
80503;SDS011;69825;51.190;6.808;2023-07-29T04:34:01;1.63;;;1.10;;
80503;SDS011;69825;51.190;6.808;2023-07-29T04:36:27;1.30;;;1.20;;
80503;SDS011;69825;51.190;6.808;2023-07-29T04:38:52;1.42;;;1.20;;
80503;SDS011;69825;51.190;6.808;2023-07-29T04:41:18;2.45;;;1.13;;
80503;SDS011;69825;51.190;6.808;2023-07-29T04:43:43;2.15;;;1.23;;
80503;SDS011;69825;51.190;6.808;2023-07-29T04:46:08;2.13;;;1.50;;
80503;SDS011;69825;51.190;6.808;2023-07-29T04:48:34;3.72;;;1.40;;
80503;SDS011;69825;51.190;6.808;2023-07-29T04:50:59;3.75;;;1.60;;
80503;SDS011;69825;51.190;6.808;2023-07-29T04:53:25;2.42;;;1.30;;
80503;SDS011;69825;51.190;6.808;2023-07-29T04:55:50;2.60;;;1.40;;
80503;SDS011;69825;51.190;6.808;2023-07-29T04:58:15;3.05;;;1.45;;
80503;SDS011;69825;51.190;6.808;2023-07-29T05:00:41;3.80;;;1.20;;
80503;SDS011;69825;51.190;6.808;2023-07-29T05:03:06;2.45;;;1.23;;
80503;SDS011;69825;51.190;6.808;2023-07-29T05:05:31;1.95;;;1.42;;
80503;SDS011;69825;51.190;6.808;2023-07-29T05:07:57;1.48;;;1.38;;
80503;SDS011;69825;51.190;6.808;2023-07-29T05:10:22;3.95;;;1.45;;
80503;SDS011;69825;51.190;6.808;2023-07-29T05:12:48;3.35;;;1.50;;
80503;SDS011;69825;51.190;6.808;2023-07-29T05:15:13;1.40;;;1.30;;
80503;SDS011;69825;51.190;6.808;2023-07-29T05:17:39;1.77;;;1.40;;
80503;SDS011;69825;51.190;6.808;2023-07-29T05:20:04;1.60;;;1.50;;
80503;SDS011;69825;51.190;6.808;2023-07-29T05:22:30;2.85;;;1.40;;
80503;SDS011;69825;51.190;6.808;2023-07-29T05:24:55;2.90;;;1.50;;
80503;SDS011;69825;51.190;6.808;2023-07-29T05:27:21;2.50;;;1.38;;
80503;SDS011;69825;51.190;6.808;2023-07-29T05:29:46;3.15;;;1.60;;
80503;SDS011;69825;51.190;6.808;2023-07-29T05:32:11;2.25;;;1.60;;
80503;SDS011;69825;51.190;6.808;2023-07-29T05:34:37;2.55;;;1.80;;
80503;SDS011;69825;51.190;6.808;2023-07-29T05:37:02;1.80;;;1.50;;
80503;SDS011;69825;51.190;6.808;2023-07-29T05:39:28;3.65;;;1.63;;
80503;SDS011;69825;51.190;6.808;2023-07-29T05:41:53;3.78;;;1.48;;
80503;SDS011;69825;51.190;6.808;2023-07-29T05:44:19;1.75;;;1.40;;
80503;SDS011;69825;51.190;6.808;2023-07-29T05:46:44;2.38;;;1.60;;
80503;SDS011;69825;51.190;6.808;2023-07-29T05:49:10;2.30;;;1.40;;
80503;SDS011;69825;51.190;6.808;2023-07-29T05:51:35;3.38;;;1.60;;
80503;SDS011;69825;51.190;6.808;2023-07-29T05:54:01;1.80;;;1.63;;
80503;SDS011;69825;51.190;6.808;2023-07-29T05:56:26;1.80;;;1.70;;
80503;SDS011;69825;51.190;6.808;2023-07-29T05:58:51;3.13;;;1.80;;
80503;SDS011;69825;51.190;6.808;2023-07-29T06:01:18;3.45;;;1.80;;
80503;SDS011;69825;51.190;6.808;2023-07-29T06:03:46;1.70;;;1.58;;
80503;SDS011;69825;51.190;6.808;2023-07-29T06:06:11;1.60;;;1.50;;
80503;SDS011;69825;51.190;6.808;2023-07-29T06:08:37;1.60;;;1.50;;
80503;SDS011;69825;51.190;6.808;2023-07-29T06:11:02;1.63;;;1.45;;
80503;SDS011;69825;51.190;6.808;2023-07-29T06:13:28;1.60;;;1.40;;
80503;SDS011;69825;51.190;6.808;2023-07-29T06:15:53;3.15;;;1.40;;
80503;SDS011;69825;51.190;6.808;2023-07-29T06:18:19;2.22;;;1.45;;
80503;SDS011;69825;51.190;6.808;2023-07-29T06:20:44;1.83;;;1.30;;
80503;SDS011;69825;51.190;6.808;2023-07-29T06:23:10;1.40;;;1.30;;
80503;SDS011;69825;51.190;6.808;2023-07-29T06:25:35;2.17;;;1.13;;
80503;SDS011;69825;51.190;6.808;2023-07-29T06:28:00;3.03;;;1.55;;
80503;SDS011;69825;51.190;6.808;2023-07-29T06:30:26;1.60;;;1.30;;
80503;SDS011;69825;51.190;6.808;2023-07-29T06:32:51;3.63;;;1.25;;
80503;SDS011;69825;51.190;6.808;2023-07-29T06:35:16;1.65;;;1.30;;
80503;SDS011;69825;51.190;6.808;2023-07-29T06:37:42;2.15;;;1.30;;
80503;SDS011;69825;51.190;6.808;2023-07-29T06:40:07;3.15;;;1.48;;
80503;SDS011;69825;51.190;6.808;2023-07-29T06:42:33;1.60;;;1.23;;
80503;SDS011;69825;51.190;6.808;2023-07-29T06:45:02;1.15;;;1.05;;
80503;SDS011;69825;51.190;6.808;2023-07-29T06:47:28;2.00;;;1.45;;
80503;SDS011;69825;51.190;6.808;2023-07-29T06:49:53;2.28;;;1.27;;
80503;SDS011;69825;51.190;6.808;2023-07-29T06:52:19;1.50;;;1.20;;
80503;SDS011;69825;51.190;6.808;2023-07-29T06:54:44;2.05;;;1.45;;
80503;SDS011;69825;51.190;6.808;2023-07-29T06:57:09;2.17;;;1.30;;
80503;SDS011;69825;51.190;6.808;2023-07-29T06:59:35;3.50;;;1.23;;
80503;SDS011;69825;51.190;6.808;2023-07-29T07:02:00;1.80;;;1.20;;
80503;SDS011;69825;51.190;6.808;2023-07-29T07:04:26;1.35;;;0.88;;
80503;SDS011;69825;51.190;6.808;2023-07-29T07:06:52;2.85;;;1.20;;
80503;SDS011;69825;51.190;6.808;2023-07-29T07:09:17;1.17;;;1.08;;
80503;SDS011;69825;51.190;6.808;2023-07-29T07:11:42;1.88;;;1.10;;
80503;SDS011;69825;51.190;6.808;2023-07-29T07:14:08;1.10;;;1.00;;
80503;SDS011;69825;51.190;6.808;2023-07-29T07:16:33;1.85;;;1.08;;
80503;SDS011;69825;51.190;6.808;2023-07-29T07:19:01;2.30;;;0.90;;
80503;SDS011;69825;51.190;6.808;2023-07-29T07:21:26;1.70;;;1.27;;
80503;SDS011;69825;51.190;6.808;2023-07-29T07:23:52;1.30;;;1.20;;
80503;SDS011;69825;51.190;6.808;2023-07-29T07:26:17;1.25;;;1.00;;
80503;SDS011;69825;51.190;6.808;2023-07-29T07:28:42;1.73;;;1.20;;
80503;SDS011;69825;51.190;6.808;2023-07-29T07:31:08;2.03;;;1.05;;
80503;SDS011;69825;51.190;6.808;2023-07-29T07:33:33;1.05;;;1.05;;
80503;SDS011;69825;51.190;6.808;2023-07-29T07:35:58;1.00;;;1.00;;
80503;SDS011;69825;51.190;6.808;2023-07-29T07:38:24;1.10;;;1.00;;
80503;SDS011;69825;51.190;6.808;2023-07-29T07:40:55;1.63;;;1.00;;
80503;SDS011;69825;51.190;6.808;2023-07-29T07:43:21;1.05;;;1.05;;
80503;SDS011;69825;51.190;6.808;2023-07-29T07:45:47;1.85;;;1.10;;
80503;SDS011;69825;51.190;6.808;2023-07-29T07:48:12;1.08;;;0.95;;
80503;SDS011;69825;51.190;6.808;2023-07-29T07:50:38;0.82;;;0.82;;
80503;SDS011;69825;51.190;6.808;2023-07-29T07:53:04;1.25;;;1.17;;
80503;SDS011;69825;51.190;6.808;2023-07-29T07:55:29;1.33;;;1.23;;
80503;SDS011;69825;51.190;6.808;2023-07-29T07:57:55;1.10;;;1.05;;
80503;SDS011;69825;51.190;6.808;2023-07-29T08:00:20;1.45;;;1.00;;
80503;SDS011;69825;51.190;6.808;2023-07-29T08:02:46;1.20;;;1.10;;
80503;SDS011;69825;51.190;6.808;2023-07-29T08:05:11;0.93;;;0.93;;
80503;SDS011;69825;51.190;6.808;2023-07-29T08:07:37;1.67;;;1.00;;
80503;SDS011;69825;51.190;6.808;2023-07-29T08:10:02;1.02;;;1.00;;
80503;SDS011;69825;51.190;6.808;2023-07-29T08:12:27;1.77;;;0.95;;
80503;SDS011;69825;51.190;6.808;2023-07-29T08:14:53;1.40;;;1.25;;
80503;SDS011;69825;51.190;6.808;2023-07-29T08:17:18;1.20;;;1.00;;
80503;SDS011;69825;51.190;6.808;2023-07-29T08:19:43;0.95;;;0.77;;
80503;SDS011;69825;51.190;6.808;2023-07-29T08:22:09;0.80;;;0.80;;
80503;SDS011;69825;51.190;6.808;2023-07-29T08:24:34;2.88;;;1.10;;
80503;SDS011;69825;51.190;6.808;2023-07-29T08:27:00;1.08;;;1.08;;
80503;SDS011;69825;51.190;6.808;2023-07-29T08:29:25;2.20;;;1.13;;
80503;SDS011;69825;51.190;6.808;2023-07-29T08:31:50;1.90;;;0.95;;
80503;SDS011;69825;51.190;6.808;2023-07-29T08:34:16;0.90;;;0.80;;
80503;SDS011;69825;51.190;6.808;2023-07-29T08:36:42;0.98;;;0.90;;
80503;SDS011;69825;51.190;6.808;2023-07-29T08:39:07;1.00;;;1.00;;
80503;SDS011;69825;51.190;6.808;2023-07-29T08:41:35;0.80;;;0.80;;
80503;SDS011;69825;51.190;6.808;2023-07-29T08:44:21;1.05;;;1.00;;
80503;SDS011;69825;51.190;6.808;2023-07-29T08:46:48;1.30;;;0.95;;
80503;SDS011;69825;51.190;6.808;2023-07-29T08:49:13;1.00;;;1.00;;
80503;SDS011;69825;51.190;6.808;2023-07-29T08:51:41;1.50;;;0.93;;
80503;SDS011;69825;51.190;6.808;2023-07-29T08:54:08;0.95;;;0.95;;
80503;SDS011;69825;51.190;6.808;2023-07-29T08:56:35;1.17;;;1.10;;
80503;SDS011;69825;51.190;6.808;2023-07-29T08:59:01;0.90;;;0.90;;
80503;SDS011;69825;51.190;6.808;2023-07-29T09:01:27;0.85;;;0.85;;
80503;SDS011;69825;51.190;6.808;2023-07-29T09:03:53;0.95;;;0.90;;
80503;SDS011;69825;51.190;6.808;2023-07-29T09:06:18;1.52;;;1.08;;
80503;SDS011;69825;51.190;6.808;2023-07-29T09:08:46;1.05;;;1.00;;
80503;SDS011;69825;51.190;6.808;2023-07-29T09:11:16;0.93;;;0.90;;
80503;SDS011;69825;51.190;6.808;2023-07-29T09:13:42;2.20;;;1.10;;
80503;SDS011;69825;51.190;6.808;2023-07-29T09:16:08;0.60;;;0.60;;
80503;SDS011;69825;51.190;6.808;2023-07-29T09:18:34;0.90;;;0.90;;
80503;SDS011;69825;51.190;6.808;2023-07-29T09:20:59;0.80;;;0.80;;
80503;SDS011;69825;51.190;6.808;2023-07-29T09:23:27;0.90;;;0.90;;
80503;SDS011;69825;51.190;6.808;2023-07-29T09:26:02;1.08;;;0.80;;
80503;SDS011;69825;51.190;6.808;2023-07-29T09:28:39;0.90;;;0.90;;
80503;SDS011;69825;51.190;6.808;2023-07-29T09:31:05;1.00;;;1.00;;
80503;SDS011;69825;51.190;6.808;2023-07-29T09:33:35;0.90;;;0.90;;
80503;SDS011;69825;51.190;6.808;2023-07-29T09:36:08;1.37;;;0.97;;
80503;SDS011;69825;51.190;6.808;2023-07-29T09:38:34;1.67;;;0.88;;
80503;SDS011;69825;51.190;6.808;2023-07-29T09:41:01;0.90;;;0.90;;
80503;SDS011;69825;51.190;6.808;2023-07-29T09:43:30;0.75;;;0.75;;
80503;SDS011;69825;51.190;6.808;2023-07-29T09:46:01;0.85;;;0.85;;
80503;SDS011;69825;51.190;6.808;2023-07-29T09:48:27;1.00;;;0.80;;
80503;SDS011;69825;51.190;6.808;2023-07-29T09:50:56;0.80;;;0.80;;
80503;SDS011;69825;51.190;6.808;2023-07-29T09:53:21;0.82;;;0.82;;
80503;SDS011;69825;51.190;6.808;2023-07-29T09:55:47;0.70;;;0.70;;
80503;SDS011;69825;51.190;6.808;2023-07-29T09:58:13;0.90;;;0.90;;
80503;SDS011;69825;51.190;6.808;2023-07-29T10:00:39;0.90;;;0.90;;
80503;SDS011;69825;51.190;6.808;2023-07-29T10:03:05;1.98;;;0.90;;
80503;SDS011;69825;51.190;6.808;2023-07-29T10:05:31;0.73;;;0.73;;
80503;SDS011;69825;51.190;6.808;2023-07-29T10:07:59;0.85;;;0.77;;
80503;SDS011;69825;51.190;6.808;2023-07-29T10:10:25;0.77;;;0.77;;
80503;SDS011;69825;51.190;6.808;2023-07-29T10:12:52;0.90;;;0.90;;
80503;SDS011;69825;51.190;6.808;2023-07-29T10:15:19;0.70;;;0.70;;
80503;SDS011;69825;51.190;6.808;2023-07-29T10:17:45;0.85;;;0.85;;
80503;SDS011;69825;51.190;6.808;2023-07-29T10:20:11;0.70;;;0.70;;
80503;SDS011;69825;51.190;6.808;2023-07-29T10:22:38;0.80;;;0.80;;
80503;SDS011;69825;51.190;6.808;2023-07-29T10:25:08;0.70;;;0.70;;
80503;SDS011;69825;51.190;6.808;2023-07-29T10:27:52;0.80;;;0.80;;
80503;SDS011;69825;51.190;6.808;2023-07-29T10:30:21;1.00;;;0.90;;
80503;SDS011;69825;51.190;6.808;2023-07-29T10:32:47;0.98;;;0.98;;
80503;SDS011;69825;51.190;6.808;2023-07-29T10:35:14;0.90;;;0.90;;
80503;SDS011;69825;51.190;6.808;2023-07-29T10:37:41;0.80;;;0.80;;
80503;SDS011;69825;51.190;6.808;2023-07-29T10:40:08;0.80;;;0.80;;
80503;SDS011;69825;51.190;6.808;2023-07-29T10:42:35;1.20;;;0.98;;
80503;SDS011;69825;51.190;6.808;2023-07-29T10:45:16;0.70;;;0.70;;
80503;SDS011;69825;51.190;6.808;2023-07-29T10:47:43;0.70;;;0.70;;
80503;SDS011;69825;51.190;6.808;2023-07-29T10:50:16;0.80;;;0.80;;
80503;SDS011;69825;51.190;6.808;2023-07-29T10:52:44;0.77;;;0.77;;
80503;SDS011;69825;51.190;6.808;2023-07-29T10:55:33;0.80;;;0.80;;
80503;SDS011;69825;51.190;6.808;2023-07-29T11:00:40;0.80;;;0.80;;
80503;SDS011;69825;51.190;6.808;2023-07-29T11:03:07;0.85;;;0.85;;
80503;SDS011;69825;51.190;6.808;2023-07-29T11:08:31;0.80;;;0.80;;
80503;SDS011;69825;51.190;6.808;2023-07-29T11:11:03;0.80;;;0.80;;
80503;SDS011;69825;51.190;6.808;2023-07-29T11:13:31;0.70;;;0.70;;
80503;SDS011;69825;51.190;6.808;2023-07-29T11:15:58;0.70;;;0.70;;
80503;SDS011;69825;51.190;6.808;2023-07-29T11:18:33;0.65;;;0.65;;
80503;SDS011;69825;51.190;6.808;2023-07-29T11:21:01;0.80;;;0.80;;
80503;SDS011;69825;51.190;6.808;2023-07-29T11:23:34;0.68;;;0.63;;
80503;SDS011;69825;51.190;6.808;2023-07-29T11:26:01;0.70;;;0.70;;
80503;SDS011;69825;51.190;6.808;2023-07-29T11:28:28;0.80;;;0.80;;
80503;SDS011;69825;51.190;6.808;2023-07-29T11:30:55;0.73;;;0.73;;
80503;SDS011;69825;51.190;6.808;2023-07-29T11:33:21;0.80;;;0.80;;
80503;SDS011;69825;51.190;6.808;2023-07-29T11:35:48;0.60;;;0.60;;
80503;SDS011;69825;51.190;6.808;2023-07-29T11:38:14;1.23;;;0.98;;
80503;SDS011;69825;51.190;6.808;2023-07-29T11:40:53;0.65;;;0.65;;
80503;SDS011;69825;51.190;6.808;2023-07-29T11:43:19;1.92;;;0.80;;
80503;SDS011;69825;51.190;6.808;2023-07-29T11:45:44;0.80;;;0.80;;
80503;SDS011;69825;51.190;6.808;2023-07-29T11:48:10;0.80;;;0.80;;
80503;SDS011;69825;51.190;6.808;2023-07-29T11:50:35;0.70;;;0.70;;
80503;SDS011;69825;51.190;6.808;2023-07-29T11:53:01;0.70;;;0.70;;
80503;SDS011;69825;51.190;6.808;2023-07-29T11:55:26;0.75;;;0.75;;
80503;SDS011;69825;51.190;6.808;2023-07-29T11:57:52;0.75;;;0.75;;
80503;SDS011;69825;51.190;6.808;2023-07-29T12:00:18;0.70;;;0.70;;
80503;SDS011;69825;51.190;6.808;2023-07-29T12:02:43;0.70;;;0.70;;
80503;SDS011;69825;51.190;6.808;2023-07-29T12:05:13;0.60;;;0.60;;
80503;SDS011;69825;51.190;6.808;2023-07-29T12:07:39;0.70;;;0.70;;
80503;SDS011;69825;51.190;6.808;2023-07-29T12:10:07;0.68;;;0.68;;
80503;SDS011;69825;51.190;6.808;2023-07-29T12:12:33;0.80;;;0.80;;
80503;SDS011;69825;51.190;6.808;2023-07-29T12:14:58;0.70;;;0.70;;
80503;SDS011;69825;51.190;6.808;2023-07-29T12:17:23;0.68;;;0.68;;
80503;SDS011;69825;51.190;6.808;2023-07-29T12:19:49;0.70;;;0.70;;
80503;SDS011;69825;51.190;6.808;2023-07-29T12:22:19;0.60;;;0.60;;
80503;SDS011;69825;51.190;6.808;2023-07-29T12:24:45;0.60;;;0.60;;
80503;SDS011;69825;51.190;6.808;2023-07-29T12:27:11;0.73;;;0.73;;
80503;SDS011;69825;51.190;6.808;2023-07-29T12:29:43;0.65;;;0.65;;
80503;SDS011;69825;51.190;6.808;2023-07-29T12:32:11;0.68;;;0.68;;
80503;SDS011;69825;51.190;6.808;2023-07-29T12:34:37;0.60;;;0.60;;
80503;SDS011;69825;51.190;6.808;2023-07-29T12:37:04;0.82;;;0.82;;
80503;SDS011;69825;51.190;6.808;2023-07-29T12:39:31;0.60;;;0.60;;
80503;SDS011;69825;51.190;6.808;2023-07-29T12:41:58;0.70;;;0.70;;
80503;SDS011;69825;51.190;6.808;2023-07-29T12:44:25;0.70;;;0.70;;
80503;SDS011;69825;51.190;6.808;2023-07-29T12:46:54;0.70;;;0.70;;
80503;SDS011;69825;51.190;6.808;2023-07-29T12:49:19;0.82;;;0.70;;
80503;SDS011;69825;51.190;6.808;2023-07-29T12:51:45;0.60;;;0.60;;
80503;SDS011;69825;51.190;6.808;2023-07-29T12:54:10;0.63;;;0.63;;
80503;SDS011;69825;51.190;6.808;2023-07-29T12:56:36;0.70;;;0.70;;
80503;SDS011;69825;51.190;6.808;2023-07-29T12:59:01;0.70;;;0.70;;
80503;SDS011;69825;51.190;6.808;2023-07-29T13:01:27;0.77;;;0.68;;
80503;SDS011;69825;51.190;6.808;2023-07-29T13:03:53;0.80;;;0.80;;
80503;SDS011;69825;51.190;6.808;2023-07-29T13:06:19;0.68;;;0.68;;
80503;SDS011;69825;51.190;6.808;2023-07-29T13:08:45;0.60;;;0.60;;
80503;SDS011;69825;51.190;6.808;2023-07-29T13:11:11;0.80;;;0.80;;
80503;SDS011;69825;51.190;6.808;2023-07-29T13:13:36;0.57;;;0.57;;
80503;SDS011;69825;51.190;6.808;2023-07-29T13:16:02;0.70;;;0.70;;
80503;SDS011;69825;51.190;6.808;2023-07-29T13:18:27;0.90;;;0.80;;
80503;SDS011;69825;51.190;6.808;2023-07-29T13:20:53;0.75;;;0.75;;
80503;SDS011;69825;51.190;6.808;2023-07-29T13:23:18;0.60;;;0.60;;
80503;SDS011;69825;51.190;6.808;2023-07-29T13:25:44;0.68;;;0.68;;
80503;SDS011;69825;51.190;6.808;2023-07-29T13:28:09;0.80;;;0.80;;
80503;SDS011;69825;51.190;6.808;2023-07-29T13:30:35;0.63;;;0.63;;
80503;SDS011;69825;51.190;6.808;2023-07-29T13:33:01;0.63;;;0.63;;
80503;SDS011;69825;51.190;6.808;2023-07-29T13:35:26;0.80;;;0.80;;
80503;SDS011;69825;51.190;6.808;2023-07-29T13:37:52;0.60;;;0.60;;
80503;SDS011;69825;51.190;6.808;2023-07-29T13:40:17;0.70;;;0.70;;
80503;SDS011;69825;51.190;6.808;2023-07-29T13:42:43;0.73;;;0.70;;
80503;SDS011;69825;51.190;6.808;2023-07-29T13:45:08;0.70;;;0.70;;
80503;SDS011;69825;51.190;6.808;2023-07-29T13:47:34;0.73;;;0.73;;
80503;SDS011;69825;51.190;6.808;2023-07-29T13:49:59;0.60;;;0.60;;
80503;SDS011;69825;51.190;6.808;2023-07-29T13:52:25;0.60;;;0.60;;
80503;SDS011;69825;51.190;6.808;2023-07-29T13:54:50;0.80;;;0.80;;
80503;SDS011;69825;51.190;6.808;2023-07-29T13:57:16;0.70;;;0.70;;
80503;SDS011;69825;51.190;6.808;2023-07-29T13:59:41;1.10;;;0.80;;
80503;SDS011;69825;51.190;6.808;2023-07-29T14:02:07;0.68;;;0.68;;
80503;SDS011;69825;51.190;6.808;2023-07-29T14:04:33;0.73;;;0.70;;
80503;SDS011;69825;51.190;6.808;2023-07-29T14:06:58;0.82;;;0.77;;
80503;SDS011;69825;51.190;6.808;2023-07-29T14:09:24;0.80;;;0.80;;
80503;SDS011;69825;51.190;6.808;2023-07-29T14:11:50;0.70;;;0.70;;
80503;SDS011;69825;51.190;6.808;2023-07-29T14:14:15;0.80;;;0.80;;
80503;SDS011;69825;51.190;6.808;2023-07-29T14:16:41;0.73;;;0.73;;
80503;SDS011;69825;51.190;6.808;2023-07-29T14:19:06;0.70;;;0.70;;
80503;SDS011;69825;51.190;6.808;2023-07-29T14:21:31;0.60;;;0.60;;
80503;SDS011;69825;51.190;6.808;2023-07-29T14:23:57;0.60;;;0.60;;
80503;SDS011;69825;51.190;6.808;2023-07-29T14:26:22;0.60;;;0.60;;
80503;SDS011;69825;51.190;6.808;2023-07-29T14:28:47;0.75;;;0.75;;
80503;SDS011;69825;51.190;6.808;2023-07-29T14:31:14;0.57;;;0.57;;
80503;SDS011;69825;51.190;6.808;2023-07-29T14:33:39;0.70;;;0.70;;
80503;SDS011;69825;51.190;6.808;2023-07-29T14:36:04;0.52;;;0.52;;
80503;SDS011;69825;51.190;6.808;2023-07-29T14:38:32;0.70;;;0.70;;
80503;SDS011;69825;51.190;6.808;2023-07-29T14:40:57;1.25;;;0.63;;
80503;SDS011;69825;51.190;6.808;2023-07-29T14:43:22;0.70;;;0.70;;
80503;SDS011;69825;51.190;6.808;2023-07-29T14:45:48;0.63;;;0.63;;
80503;SDS011;69825;51.190;6.808;2023-07-29T14:48:13;0.70;;;0.70;;
80503;SDS011;69825;51.190;6.808;2023-07-29T14:50:39;0.57;;;0.57;;